sensor_id;sensor_type;location;lat;lon;timestamp;pressure;altitude;pressure_sealevel;temperature;humidity
59789;BME280;47353;51.614;5.530;2023-02-28T00:01:19;103014.91;;;-1.11;83.11
59789;BME280;47353;51.614;5.530;2023-02-28T00:03:44;103011.50;;;-1.13;83.76
59789;BME280;47353;51.614;5.530;2023-02-28T00:06:10;103003.06;;;-1.19;83.79
59789;BME280;47353;51.614;5.530;2023-02-28T00:08:36;103012.78;;;-1.17;83.90
59789;BME280;47353;51.614;5.530;2023-02-28T00:11:03;103014.66;;;-1.17;84.07
59789;BME280;47353;51.614;5.530;2023-02-28T00:13:30;103021.09;;;-1.18;83.87
59789;BME280;47353;51.614;5.530;2023-02-28T00:16:04;103013.38;;;-1.23;84.46
59789;BME280;47353;51.614;5.530;2023-02-28T00:18:30;103010.66;;;-1.23;84.86
59789;BME280;47353;51.614;5.530;2023-02-28T00:20:55;103018.09;;;-1.25;84.71
59789;BME280;47353;51.614;5.530;2023-02-28T00:23:21;103012.66;;;-1.25;84.74
59789;BME280;47353;51.614;5.530;2023-02-28T00:25:46;103000.97;;;-1.25;84.71
59789;BME280;47353;51.614;5.530;2023-02-28T00:28:11;103013.69;;;-1.26;85.11
59789;BME280;47353;51.614;5.530;2023-02-28T00:30:37;103003.97;;;-1.28;85.50
59789;BME280;47353;51.614;5.530;2023-02-28T00:33:02;103013.81;;;-1.27;85.65
59789;BME280;47353;51.614;5.530;2023-02-28T00:35:27;103006.84;;;-1.30;85.48
59789;BME280;47353;51.614;5.530;2023-02-28T00:37:53;103015.97;;;-1.31;86.06
59789;BME280;47353;51.614;5.530;2023-02-28T00:40:18;103006.97;;;-1.31;85.45
59789;BME280;47353;51.614;5.530;2023-02-28T00:42:45;103004.56;;;-1.34;85.72
59789;BME280;47353;51.614;5.530;2023-02-28T00:45:10;103003.28;;;-1.40;85.90
59789;BME280;47353;51.614;5.530;2023-02-28T00:47:36;103004.28;;;-1.41;85.96
59789;BME280;47353;51.614;5.530;2023-02-28T00:50:01;103002.00;;;-1.45;86.27
59789;BME280;47353;51.614;5.530;2023-02-28T00:52:27;102999.28;;;-1.45;86.94
59789;BME280;47353;51.614;5.530;2023-02-28T00:54:52;103002.75;;;-1.53;86.95
59789;BME280;47353;51.614;5.530;2023-02-28T00:57:18;103002.75;;;-1.53;87.05
59789;BME280;47353;51.614;5.530;2023-02-28T00:59:43;103004.59;;;-1.53;86.47
59789;BME280;47353;51.614;5.530;2023-02-28T01:02:09;103014.72;;;-1.55;86.97
59789;BME280;47353;51.614;5.530;2023-02-28T01:04:34;103009.44;;;-1.57;87.30
59789;BME280;47353;51.614;5.530;2023-02-28T01:07:00;103010.47;;;-1.58;86.84
59789;BME280;47353;51.614;5.530;2023-02-28T01:09:25;103018.03;;;-1.61;87.76
59789;BME280;47353;51.614;5.530;2023-02-28T01:11:51;103023.91;;;-1.66;88.12
59789;BME280;47353;51.614;5.530;2023-02-28T01:14:17;103030.34;;;-1.67;88.33
59789;BME280;47353;51.614;5.530;2023-02-28T01:16:43;103030.78;;;-1.72;88.74
59789;BME280;47353;51.614;5.530;2023-02-28T01:19:08;103029.63;;;-1.69;88.83
59789;BME280;47353;51.614;5.530;2023-02-28T01:21:34;103018.19;;;-1.73;89.07
59789;BME280;47353;51.614;5.530;2023-02-28T01:24:00;103024.47;;;-1.72;88.73
59789;BME280;47353;51.614;5.530;2023-02-28T01:26:26;103021.91;;;-1.74;88.98
59789;BME280;47353;51.614;5.530;2023-02-28T01:28:52;103025.06;;;-1.78;88.91
59789;BME280;47353;51.614;5.530;2023-02-28T01:31:18;103028.22;;;-1.73;89.54
59789;BME280;47353;51.614;5.530;2023-02-28T01:33:44;103039.06;;;-1.73;89.79
59789;BME280;47353;51.614;5.530;2023-02-28T01:36:12;103027.06;;;-1.71;89.53
59789;BME280;47353;51.614;5.530;2023-02-28T01:38:39;103028.19;;;-1.63;89.45
59789;BME280;47353;51.614;5.530;2023-02-28T01:41:06;103031.91;;;-1.55;89.46
59789;BME280;47353;51.614;5.530;2023-02-28T01:43:53;103020.03;;;-1.54;89.34
59789;BME280;47353;51.614;5.530;2023-02-28T01:46:19;103022.44;;;-1.51;89.18
59789;BME280;47353;51.614;5.530;2023-02-28T01:48:48;103008.63;;;-1.57;88.68
59789;BME280;47353;51.614;5.530;2023-02-28T01:51:20;103011.34;;;-1.57;88.92
59789;BME280;47353;51.614;5.530;2023-02-28T01:53:56;102993.16;;;-1.67;89.55
59789;BME280;47353;51.614;5.530;2023-02-28T01:56:26;103005.63;;;-1.64;89.69
59789;BME280;47353;51.614;5.530;2023-02-28T01:58:54;103002.91;;;-1.64;89.86
59789;BME280;47353;51.614;5.530;2023-02-28T02:01:21;103001.22;;;-1.75;89.85
59789;BME280;47353;51.614;5.530;2023-02-28T02:03:53;103006.88;;;-1.68;89.90
59789;BME280;47353;51.614;5.530;2023-02-28T02:06:30;103012.91;;;-1.64;88.44
59789;BME280;47353;51.614;5.530;2023-02-28T02:08:56;103012.59;;;-1.61;88.69
59789;BME280;47353;51.614;5.530;2023-02-28T02:11:23;103006.34;;;-1.62;89.61
59789;BME280;47353;51.614;5.530;2023-02-28T02:14:24;103015.03;;;-1.58;89.59
59789;BME280;47353;51.614;5.530;2023-02-28T02:27:59;102977.78;;;-1.29;90.01
59789;BME280;47353;51.614;5.530;2023-02-28T02:36:27;102998.56;;;-1.01;89.58
59789;BME280;47353;51.614;5.530;2023-02-28T02:41:40;102991.56;;;-0.94;88.50
59789;BME280;47353;51.614;5.530;2023-02-28T02:46:51;102983.88;;;-0.81;87.80
59789;BME280;47353;51.614;5.530;2023-02-28T02:49:29;102991.06;;;-0.80;88.15
59789;BME280;47353;51.614;5.530;2023-02-28T02:51:56;102981.16;;;-0.81;87.96
59789;BME280;47353;51.614;5.530;2023-02-28T02:54:27;102975.88;;;-0.83;87.92
59789;BME280;47353;51.614;5.530;2023-02-28T02:56:56;102992.44;;;-0.76;87.78
59789;BME280;47353;51.614;5.530;2023-02-28T02:59:23;102988.56;;;-0.74;88.19
59789;BME280;47353;51.614;5.530;2023-02-28T03:01:53;102989.44;;;-0.73;87.98
59789;BME280;47353;51.614;5.530;2023-02-28T03:04:22;102987.56;;;-0.73;87.47
59789;BME280;47353;51.614;5.530;2023-02-28T03:06:50;102986.88;;;-0.75;87.28
59789;BME280;47353;51.614;5.530;2023-02-28T03:09:20;102987.72;;;-0.74;87.16
59789;BME280;47353;51.614;5.530;2023-02-28T03:11:46;102989.59;;;-0.75;87.14
59789;BME280;47353;51.614;5.530;2023-02-28T03:17:12;102983.69;;;-0.70;86.85
59789;BME280;47353;51.614;5.530;2023-02-28T03:20:02;102984.94;;;-0.65;86.57
59789;BME280;47353;51.614;5.530;2023-02-28T03:25:24;102990.78;;;-0.60;85.70
59789;BME280;47353;51.614;5.530;2023-02-28T03:33:27;102981.69;;;-0.51;85.45
59789;BME280;47353;51.614;5.530;2023-02-28T03:35:58;102978.00;;;-0.50;85.10
59789;BME280;47353;51.614;5.530;2023-02-28T03:38:29;102987.84;;;-0.49;85.00
59789;BME280;47353;51.614;5.530;2023-02-28T03:41:05;102982.41;;;-0.49;84.54
59789;BME280;47353;51.614;5.530;2023-02-28T03:43:35;102990.97;;;-0.44;84.57
59789;BME280;47353;51.614;5.530;2023-02-28T03:46:06;102997.81;;;-0.40;84.32
59789;BME280;47353;51.614;5.530;2023-02-28T03:48:45;102996.34;;;-0.34;84.05
59789;BME280;47353;51.614;5.530;2023-02-28T03:51:16;102992.31;;;-0.30;84.16
59789;BME280;47353;51.614;5.530;2023-02-28T03:53:47;102997.59;;;-0.29;83.96
59789;BME280;47353;51.614;5.530;2023-02-28T04:01:57;102985.94;;;-0.21;83.65
59789;BME280;47353;51.614;5.530;2023-02-28T04:04:24;102985.78;;;-0.20;83.12
59789;BME280;47353;51.614;5.530;2023-02-28T04:06:51;102982.91;;;-0.18;83.49
59789;BME280;47353;51.614;5.530;2023-02-28T04:09:17;102976.31;;;-0.16;83.46
59789;BME280;47353;51.614;5.530;2023-02-28T04:11:45;102981.59;;;-0.14;83.27
59789;BME280;47353;51.614;5.530;2023-02-28T04:14:11;102977.84;;;-0.13;82.90
59789;BME280;47353;51.614;5.530;2023-02-28T04:16:40;102990.28;;;-0.11;83.12
59789;BME280;47353;51.614;5.530;2023-02-28T04:19:07;102992.84;;;-0.09;82.93
59789;BME280;47353;51.614;5.530;2023-02-28T04:21:34;102990.28;;;-0.11;82.60
59789;BME280;47353;51.614;5.530;2023-02-28T04:24:00;102985.72;;;-0.10;82.72
59789;BME280;47353;51.614;5.530;2023-02-28T04:26:33;102998.13;;;-0.08;82.89
59789;BME280;47353;51.614;5.530;2023-02-28T04:29:00;103001.72;;;-0.07;82.48
59789;BME280;47353;51.614;5.530;2023-02-28T04:31:25;102993.72;;;-0.09;82.51
59789;BME280;47353;51.614;5.530;2023-02-28T04:33:51;102999.72;;;-0.05;82.02
59789;BME280;47353;51.614;5.530;2023-02-28T04:36:17;102993.25;;;-0.04;82.35
59789;BME280;47353;51.614;5.530;2023-02-28T04:38:43;102995.66;;;-0.01;82.07
59789;BME280;47353;51.614;5.530;2023-02-28T04:41:10;102997.38;;;0.00;82.32
59789;BME280;47353;51.614;5.530;2023-02-28T04:43:35;102987.81;;;-0.04;82.20
59789;BME280;47353;51.614;5.530;2023-02-28T04:46:02;102998.94;;;0.03;82.18
59789;BME280;47353;51.614;5.530;2023-02-28T04:48:30;103002.69;;;0.02;82.30
59789;BME280;47353;51.614;5.530;2023-02-28T04:51:00;102992.78;;;0.00;82.40
59789;BME280;47353;51.614;5.530;2023-02-28T04:53:27;103006.25;;;0.02;82.55
59789;BME280;47353;51.614;5.530;2023-02-28T04:55:52;103011.84;;;0.00;82.57
59789;BME280;47353;51.614;5.530;2023-02-28T04:58:18;102997.16;;;-0.07;83.06
59789;BME280;47353;51.614;5.530;2023-02-28T05:00:43;103013.56;;;0.02;82.96
59789;BME280;47353;51.614;5.530;2023-02-28T05:03:09;102991.88;;;-0.08;82.85
59789;BME280;47353;51.614;5.530;2023-02-28T05:05:34;103013.56;;;0.02;83.04
59789;BME280;47353;51.614;5.530;2023-02-28T05:08:00;103004.53;;;0.01;83.13
59789;BME280;47353;51.614;5.530;2023-02-28T05:10:25;102997.22;;;0.02;83.42
59789;BME280;47353;51.614;5.530;2023-02-28T05:12:51;103009.97;;;0.01;83.51
59789;BME280;47353;51.614;5.530;2023-02-28T05:15:17;103003.13;;;-0.03;83.72
59789;BME280;47353;51.614;5.530;2023-02-28T05:17:42;103019.16;;;0.00;83.72
59789;BME280;47353;51.614;5.530;2023-02-28T05:20:09;103012.84;;;-0.01;83.87
59789;BME280;47353;51.614;5.530;2023-02-28T05:22:39;103014.72;;;-0.01;83.98
59789;BME280;47353;51.614;5.530;2023-02-28T05:25:05;103008.56;;;-0.03;84.29
59789;BME280;47353;51.614;5.530;2023-02-28T05:27:30;103011.28;;;-0.03;84.32
59789;BME280;47353;51.614;5.530;2023-02-28T05:29:56;103010.59;;;-0.05;84.11
59789;BME280;47353;51.614;5.530;2023-02-28T05:32:22;103012.63;;;-0.07;84.21
59789;BME280;47353;51.614;5.530;2023-02-28T05:34:47;103007.31;;;-0.09;83.99
59789;BME280;47353;51.614;5.530;2023-02-28T05:37:14;103017.34;;;-0.09;84.06
59789;BME280;47353;51.614;5.530;2023-02-28T05:39:40;103013.09;;;-0.12;84.00
59789;BME280;47353;51.614;5.530;2023-02-28T05:42:06;103022.41;;;-0.14;83.90
59789;BME280;47353;51.614;5.530;2023-02-28T05:44:32;103015.25;;;-0.15;84.03
59789;BME280;47353;51.614;5.530;2023-02-28T05:46:57;103009.81;;;-0.15;83.91
59789;BME280;47353;51.614;5.530;2023-02-28T05:49:22;103016.44;;;-0.18;83.72
59789;BME280;47353;51.614;5.530;2023-02-28T05:51:48;103014.88;;;-0.20;84.17
59789;BME280;47353;51.614;5.530;2023-02-28T05:54:13;103018.59;;;-0.21;83.77
59789;BME280;47353;51.614;5.530;2023-02-28T05:56:39;103019.06;;;-0.26;83.84
59789;BME280;47353;51.614;5.530;2023-02-28T05:59:06;103020.91;;;-0.26;83.95
59789;BME280;47353;51.614;5.530;2023-02-28T06:04:00;103024.97;;;-0.30;83.92
59789;BME280;47353;51.614;5.530;2023-02-28T06:06:26;103026.28;;;-0.34;83.57
59789;BME280;47353;51.614;5.530;2023-02-28T06:08:51;103032.03;;;-0.37;83.49
59789;BME280;47353;51.614;5.530;2023-02-28T06:11:17;103035.75;;;-0.38;83.98
59789;BME280;47353;51.614;5.530;2023-02-28T06:13:45;103040.19;;;-0.37;84.00
59789;BME280;47353;51.614;5.530;2023-02-28T06:16:10;103039.72;;;-0.33;84.04
59789;BME280;47353;51.614;5.530;2023-02-28T06:18:36;103034.81;;;-0.29;83.99
59789;BME280;47353;51.614;5.530;2023-02-28T06:21:02;103029.53;;;-0.31;83.88
59789;BME280;47353;51.614;5.530;2023-02-28T06:23:27;103031.25;;;-0.30;83.83
59789;BME280;47353;51.614;5.530;2023-02-28T06:25:53;103040.97;;;-0.27;83.87
59789;BME280;47353;51.614;5.530;2023-02-28T06:28:21;103045.94;;;-0.23;84.08
59789;BME280;47353;51.614;5.530;2023-02-28T06:30:46;103042.94;;;-0.20;84.08
59789;BME280;47353;51.614;5.530;2023-02-28T06:33:12;103040.59;;;-0.15;83.87
59789;BME280;47353;51.614;5.530;2023-02-28T06:35:37;103036.88;;;-0.14;83.86
59789;BME280;47353;51.614;5.530;2023-02-28T06:38:03;103045.03;;;-0.14;83.89
59789;BME280;47353;51.614;5.530;2023-02-28T06:40:29;103043.31;;;-0.15;83.82
59789;BME280;47353;51.614;5.530;2023-02-28T06:42:57;103047.28;;;-0.09;83.86
59789;BME280;47353;51.614;5.530;2023-02-28T06:45:22;103040.00;;;-0.09;83.88
59789;BME280;47353;51.614;5.530;2023-02-28T06:47:47;103040.53;;;-0.05;83.65
59789;BME280;47353;51.614;5.530;2023-02-28T06:50:17;103040.53;;;-0.05;83.76
59789;BME280;47353;51.614;5.530;2023-02-28T06:52:44;103052.25;;;-0.05;83.41
59789;BME280;47353;51.614;5.530;2023-02-28T06:55:10;103045.44;;;-0.09;83.44
59789;BME280;47353;51.614;5.530;2023-02-28T06:57:36;103057.50;;;-0.11;83.50
59789;BME280;47353;51.614;5.530;2023-02-28T07:00:05;103061.06;;;-0.11;83.79
59789;BME280;47353;51.614;5.530;2023-02-28T07:02:33;103057.50;;;-0.11;83.35
59789;BME280;47353;51.614;5.530;2023-02-28T07:04:58;103050.63;;;-0.15;82.86
59789;BME280;47353;51.614;5.530;2023-02-28T07:07:24;103053.81;;;-0.20;82.76
59789;BME280;47353;51.614;5.530;2023-02-28T07:09:49;103048.69;;;-0.23;82.50
59789;BME280;47353;51.614;5.530;2023-02-28T07:12:15;103055.69;;;-0.20;82.42
59789;BME280;47353;51.614;5.530;2023-02-28T07:14:40;103066.69;;;-0.22;82.12
59789;BME280;47353;51.614;5.530;2023-02-28T07:17:10;103063.16;;;-0.22;82.23
59789;BME280;47353;51.614;5.530;2023-02-28T07:19:40;103062.28;;;-0.23;81.79
59789;BME280;47353;51.614;5.530;2023-02-28T07:22:06;103067.41;;;-0.20;81.42
59789;BME280;47353;51.614;5.530;2023-02-28T07:24:32;103065.66;;;-0.11;81.41
59789;BME280;47353;51.614;5.530;2023-02-28T07:26:57;103075.63;;;-0.02;81.10
59789;BME280;47353;51.614;5.530;2023-02-28T07:29:22;103074.69;;;0.07;81.00
59789;BME280;47353;51.614;5.530;2023-02-28T07:31:48;103080.59;;;0.20;79.91
59789;BME280;47353;51.614;5.530;2023-02-28T07:34:15;103079.91;;;0.36;79.48
59789;BME280;47353;51.614;5.530;2023-02-28T07:36:41;103083.09;;;0.49;78.55
59789;BME280;47353;51.614;5.530;2023-02-28T07:39:06;103080.53;;;0.65;78.27
59789;BME280;47353;51.614;5.530;2023-02-28T07:41:34;103080.78;;;0.79;77.50
59789;BME280;47353;51.614;5.530;2023-02-28T07:44:02;103080.59;;;0.98;77.09
59789;BME280;47353;51.614;5.530;2023-02-28T07:46:28;103088.88;;;1.14;77.15
59789;BME280;47353;51.614;5.530;2023-02-28T07:49:00;103088.97;;;1.30;75.40
59789;BME280;47353;51.614;5.530;2023-02-28T07:51:26;103091.66;;;1.48;73.99
59789;BME280;47353;51.614;5.530;2023-02-28T07:53:51;103091.38;;;1.67;73.85
59789;BME280;47353;51.614;5.530;2023-02-28T07:56:17;103092.16;;;1.93;72.31
59789;BME280;47353;51.614;5.530;2023-02-28T07:58:42;103093.75;;;2.12;70.79
59789;BME280;47353;51.614;5.530;2023-02-28T08:01:09;103090.41;;;2.50;70.83
59789;BME280;47353;51.614;5.530;2023-02-28T08:03:35;103098.78;;;2.88;69.49
59789;BME280;47353;51.614;5.530;2023-02-28T08:06:03;103089.78;;;3.42;67.09
59789;BME280;47353;51.614;5.530;2023-02-28T08:08:29;103085.78;;;4.00;66.03
59789;BME280;47353;51.614;5.530;2023-02-28T08:10:58;103094.00;;;4.53;63.20
59789;BME280;47353;51.614;5.530;2023-02-28T08:13:24;103091.94;;;4.92;60.13
59789;BME280;47353;51.614;5.530;2023-02-28T08:15:50;103095.81;;;5.20;57.06
59789;BME280;47353;51.614;5.530;2023-02-28T08:18:15;103100.00;;;5.74;49.91
59789;BME280;47353;51.614;5.530;2023-02-28T08:20:41;103096.41;;;6.03;50.13
59789;BME280;47353;51.614;5.530;2023-02-28T08:23:06;103089.00;;;6.39;46.86
59789;BME280;47353;51.614;5.530;2023-02-28T08:25:32;103094.41;;;7.17;47.54
59789;BME280;47353;51.614;5.530;2023-02-28T08:27:57;103084.88;;;7.47;43.58
59789;BME280;47353;51.614;5.530;2023-02-28T08:30:23;103091.72;;;7.57;41.86
59789;BME280;47353;51.614;5.530;2023-02-28T08:32:48;103080.78;;;8.11;41.05
59789;BME280;47353;51.614;5.530;2023-02-28T08:35:14;103090.22;;;8.42;40.32
59789;BME280;47353;51.614;5.530;2023-02-28T08:37:39;103093.25;;;8.61;39.31
59789;BME280;47353;51.614;5.530;2023-02-28T08:40:05;103082.91;;;9.02;37.09
59789;BME280;47353;51.614;5.530;2023-02-28T08:42:32;103063.34;;;8.97;35.35
59789;BME280;47353;51.614;5.530;2023-02-28T08:44:57;103082.84;;;9.41;35.54
59789;BME280;47353;51.614;5.530;2023-02-28T08:47:23;103083.22;;;9.70;35.35
59789;BME280;47353;51.614;5.530;2023-02-28T08:49:48;103084.22;;;9.89;34.20
59789;BME280;47353;51.614;5.530;2023-02-28T08:52:14;103079.94;;;9.99;33.73
59789;BME280;47353;51.614;5.530;2023-02-28T08:54:39;103083.50;;;10.20;32.66
59789;BME280;47353;51.614;5.530;2023-02-28T08:57:05;103089.31;;;10.49;33.27
59789;BME280;47353;51.614;5.530;2023-02-28T08:59:30;103087.31;;;10.87;32.62
59789;BME280;47353;51.614;5.530;2023-02-28T09:01:55;103096.19;;;11.27;32.39
59789;BME280;47353;51.614;5.530;2023-02-28T09:04:21;103102.56;;;11.27;31.75
59789;BME280;47353;51.614;5.530;2023-02-28T09:06:47;103099.41;;;11.48;30.34
59789;BME280;47353;51.614;5.530;2023-02-28T09:09:14;103096.28;;;11.63;29.83
59789;BME280;47353;51.614;5.530;2023-02-28T09:11:40;103099.94;;;12.00;28.58
59789;BME280;47353;51.614;5.530;2023-02-28T09:14:05;103098.63;;;12.02;27.80
59789;BME280;47353;51.614;5.530;2023-02-28T09:16:32;103092.56;;;12.23;27.26
59789;BME280;47353;51.614;5.530;2023-02-28T09:18:57;103097.31;;;12.23;27.00
59789;BME280;47353;51.614;5.530;2023-02-28T09:21:23;103095.34;;;12.41;26.20
59789;BME280;47353;51.614;5.530;2023-02-28T09:23:49;103090.66;;;12.24;25.72
59789;BME280;47353;51.614;5.530;2023-02-28T09:26:18;103092.03;;;12.33;26.03
59789;BME280;47353;51.614;5.530;2023-02-28T09:28:43;103090.06;;;12.81;26.04
59789;BME280;47353;51.614;5.530;2023-02-28T09:31:18;103084.72;;;13.43;25.99
59789;BME280;47353;51.614;5.530;2023-02-28T09:33:48;103086.78;;;13.71;24.42
59789;BME280;47353;51.614;5.530;2023-02-28T09:36:14;103094.72;;;14.53;24.97
59789;BME280;47353;51.614;5.530;2023-02-28T09:38:39;103094.25;;;14.73;23.46
59789;BME280;47353;51.614;5.530;2023-02-28T09:41:15;103097.25;;;14.99;23.90
59789;BME280;47353;51.614;5.530;2023-02-28T09:43:44;103101.25;;;15.03;23.69
59789;BME280;47353;51.614;5.530;2023-02-28T09:48:47;103089.44;;;15.30;21.13
59789;BME280;47353;51.614;5.530;2023-02-28T09:53:57;103101.03;;;15.38;21.04
59789;BME280;47353;51.614;5.530;2023-02-28T09:56:41;103088.13;;;15.70;22.00
59789;BME280;47353;51.614;5.530;2023-02-28T10:04:42;103080.38;;;15.94;21.26
59789;BME280;47353;51.614;5.530;2023-02-28T10:07:30;103085.00;;;16.26;21.17
59789;BME280;47353;51.614;5.530;2023-02-28T10:10:03;103080.25;;;16.70;20.43
59789;BME280;47353;51.614;5.530;2023-02-28T10:12:30;103083.88;;;16.71;20.37
59789;BME280;47353;51.614;5.530;2023-02-28T10:14:59;103078.97;;;16.56;19.82
59789;BME280;47353;51.614;5.530;2023-02-28T10:17:38;103075.13;;;17.52;20.87
59789;BME280;47353;51.614;5.530;2023-02-28T10:20:11;103068.97;;;17.96;20.20
59789;BME280;47353;51.614;5.530;2023-02-28T10:25:23;103072.97;;;19.12;18.11
59789;BME280;47353;51.614;5.530;2023-02-28T10:27:52;103075.50;;;19.29;17.93
59789;BME280;47353;51.614;5.530;2023-02-28T10:30:18;103050.22;;;19.49;17.43
59789;BME280;47353;51.614;5.530;2023-02-28T10:32:53;103082.19;;;19.83;17.12
59789;BME280;47353;51.614;5.530;2023-02-28T10:35:24;103079.06;;;18.69;16.49
59789;BME280;47353;51.614;5.530;2023-02-28T10:37:53;103064.28;;;18.12;17.61
59789;BME280;47353;51.614;5.530;2023-02-28T10:45:38;103060.56;;;16.60;17.75
59789;BME280;47353;51.614;5.530;2023-02-28T10:48:06;103063.81;;;16.09;19.18
59789;BME280;47353;51.614;5.530;2023-02-28T11:01:34;103050.28;;;17.65;17.91
59789;BME280;47353;51.614;5.530;2023-02-28T11:04:00;103054.00;;;17.08;17.86
59789;BME280;47353;51.614;5.530;2023-02-28T11:06:31;103044.13;;;18.25;19.25
59789;BME280;47353;51.614;5.530;2023-02-28T11:09:17;103042.94;;;19.38;17.49
59789;BME280;47353;51.614;5.530;2023-02-28T11:11:46;103054.09;;;19.73;16.71
59789;BME280;47353;51.614;5.530;2023-02-28T11:14:20;103038.31;;;19.92;16.02
59789;BME280;47353;51.614;5.530;2023-02-28T11:16:47;103049.09;;;19.30;15.85
59789;BME280;47353;51.614;5.530;2023-02-28T11:19:26;103033.91;;;19.61;16.59
59789;BME280;47353;51.614;5.530;2023-02-28T11:22:04;103032.47;;;20.86;16.26
59789;BME280;47353;51.614;5.530;2023-02-28T11:24:33;103025.75;;;20.38;15.44
59789;BME280;47353;51.614;5.530;2023-02-28T11:27:00;103033.03;;;20.39;15.41
59789;BME280;47353;51.614;5.530;2023-02-28T11:29:28;103033.03;;;20.44;15.41
59789;BME280;47353;51.614;5.530;2023-02-28T11:32:16;103030.97;;;20.60;16.15
59789;BME280;47353;51.614;5.530;2023-02-28T11:34:45;103026.88;;;20.37;15.29
59789;BME280;47353;51.614;5.530;2023-02-28T11:37:16;103018.28;;;21.01;15.26
59789;BME280;47353;51.614;5.530;2023-02-28T11:39:43;103023.63;;;21.02;15.57
59789;BME280;47353;51.614;5.530;2023-02-28T11:47:48;103020.91;;;21.21;15.54
59789;BME280;47353;51.614;5.530;2023-02-28T11:53:40;103017.78;;;22.27;14.67
59789;BME280;47353;51.614;5.530;2023-02-28T12:09:59;103008.88;;;22.57;14.16
59789;BME280;47353;51.614;5.530;2023-02-28T12:23:23;102994.44;;;21.79;14.80
59789;BME280;47353;51.614;5.530;2023-02-28T12:28:45;102992.00;;;21.91;13.86
59789;BME280;47353;51.614;5.530;2023-02-28T12:31:18;102986.13;;;21.88;14.69
59789;BME280;47353;51.614;5.530;2023-02-28T12:33:48;102982.25;;;22.63;14.36
59789;BME280;47353;51.614;5.530;2023-02-28T12:36:18;102988.41;;;23.34;13.70
59789;BME280;47353;51.614;5.530;2023-02-28T12:41:39;102974.94;;;23.99;14.61
59789;BME280;47353;51.614;5.530;2023-02-28T12:44:17;102975.84;;;23.94;14.11
59789;BME280;47353;51.614;5.530;2023-02-28T12:46:56;102974.50;;;23.65;13.82
59789;BME280;47353;51.614;5.530;2023-02-28T12:49:29;102968.53;;;23.53;13.25
59789;BME280;47353;51.614;5.530;2023-02-28T12:51:57;102959.72;;;21.03;14.39
59789;BME280;47353;51.614;5.530;2023-02-28T12:54:44;102964.59;;;21.21;14.62
59789;BME280;47353;51.614;5.530;2023-02-28T12:57:27;102966.41;;;20.73;15.60
59789;BME280;47353;51.614;5.530;2023-02-28T13:00:21;102954.72;;;20.56;15.12
59789;BME280;47353;51.614;5.530;2023-02-28T13:05:46;102956.88;;;21.31;15.50
59789;BME280;47353;51.614;5.530;2023-02-28T13:10:49;102940.03;;;21.74;14.83
59789;BME280;47353;51.614;5.530;2023-02-28T13:13:25;102939.94;;;21.84;14.67
59789;BME280;47353;51.614;5.530;2023-02-28T13:16:06;102933.25;;;21.27;15.33
59789;BME280;47353;51.614;5.530;2023-02-28T13:18:44;102944.25;;;21.76;15.15
59789;BME280;47353;51.614;5.530;2023-02-28T13:21:26;102937.00;;;22.12;14.74
59789;BME280;47353;51.614;5.530;2023-02-28T13:29:00;102918.75;;;23.25;13.88
59789;BME280;47353;51.614;5.530;2023-02-28T13:31:25;102923.38;;;23.61;13.43
59789;BME280;47353;51.614;5.530;2023-02-28T13:36:23;102923.19;;;22.11;13.80
59789;BME280;47353;51.614;5.530;2023-02-28T13:38:54;102914.41;;;21.94;14.67
59789;BME280;47353;51.614;5.530;2023-02-28T13:49:26;102908.09;;;23.62;14.03
59789;BME280;47353;51.614;5.530;2023-02-28T13:55:21;102911.06;;;22.29;14.09
59789;BME280;47353;51.614;5.530;2023-02-28T13:58:08;102912.91;;;21.07;15.09
59789;BME280;47353;51.614;5.530;2023-02-28T14:08:51;102904.66;;;21.86;15.01
59789;BME280;47353;51.614;5.530;2023-02-28T14:11:38;102918.31;;;22.53;14.59
59789;BME280;47353;51.614;5.530;2023-02-28T14:14:05;102901.94;;;22.55;14.05
59789;BME280;47353;51.614;5.530;2023-02-28T14:16:44;102909.28;;;23.02;14.89
59789;BME280;47353;51.614;5.530;2023-02-28T14:19:26;102901.31;;;22.40;14.43
59789;BME280;47353;51.614;5.530;2023-02-28T14:31:07;102891.47;;;21.82;15.57
59789;BME280;47353;51.614;5.530;2023-02-28T14:38:45;102889.03;;;21.70;15.40
59789;BME280;47353;51.614;5.530;2023-02-28T14:41:17;102894.91;;;22.53;15.05
59789;BME280;47353;51.614;5.530;2023-02-28T14:43:53;102884.97;;;22.55;15.09
59789;BME280;47353;51.614;5.530;2023-02-28T14:46:18;102887.97;;;22.45;14.65
59789;BME280;47353;51.614;5.530;2023-02-28T14:48:49;102887.13;;;22.45;14.56
59789;BME280;47353;51.614;5.530;2023-02-28T14:51:20;102893.50;;;21.76;14.88
59789;BME280;47353;51.614;5.530;2023-02-28T14:53:50;102895.19;;;21.54;15.09
59789;BME280;47353;51.614;5.530;2023-02-28T14:56:23;102884.53;;;21.51;15.64
59789;BME280;47353;51.614;5.530;2023-02-28T14:58:56;102872.47;;;20.64;15.28
59789;BME280;47353;51.614;5.530;2023-02-28T15:01:22;102888.13;;;20.03;15.27
59789;BME280;47353;51.614;5.530;2023-02-28T15:03:57;102875.72;;;19.60;16.39
59789;BME280;47353;51.614;5.530;2023-02-28T15:06:23;102884.56;;;19.34;16.17
59789;BME280;47353;51.614;5.530;2023-02-28T15:09:06;102885.47;;;19.78;16.11
59789;BME280;47353;51.614;5.530;2023-02-28T15:11:33;102868.59;;;18.99;16.55
59789;BME280;47353;51.614;5.530;2023-02-28T15:14:01;102883.44;;;19.15;17.14
59789;BME280;47353;51.614;5.530;2023-02-28T15:16:42;102882.97;;;19.71;16.91
59789;BME280;47353;51.614;5.530;2023-02-28T15:21:39;102875.25;;;19.23;16.64
59789;BME280;47353;51.614;5.530;2023-02-28T15:24:15;102881.41;;;19.45;17.22
59789;BME280;47353;51.614;5.530;2023-02-28T15:26:52;102877.78;;;19.25;16.86
59789;BME280;47353;51.614;5.530;2023-02-28T15:29:21;102883.41;;;19.25;16.92
59789;BME280;47353;51.614;5.530;2023-02-28T15:32:01;102881.13;;;19.47;16.91
59789;BME280;47353;51.614;5.530;2023-02-28T15:34:35;102879.44;;;19.41;17.09
59789;BME280;47353;51.614;5.530;2023-02-28T15:37:01;102882.88;;;19.18;17.13
59789;BME280;47353;51.614;5.530;2023-02-28T15:39:28;102885.72;;;18.98;17.45
59789;BME280;47353;51.614;5.530;2023-02-28T15:42:20;102885.69;;;19.08;17.66